sensor_id;sensor_type;location;lat;lon;timestamp;P1;durP1;ratioP1;P2;durP2;ratioP2
4323;SDS011;2175;51.018;6.994;2022-09-27T00:00:30;16.30;;;7.13;;
4323;SDS011;2175;51.018;6.994;2022-09-27T00:02:55;25.37;;;9.47;;
4323;SDS011;2175;51.018;6.994;2022-09-27T00:05:21;20.37;;;8.87;;
4323;SDS011;2175;51.018;6.994;2022-09-27T00:07:46;17.73;;;8.67;;
4323;SDS011;2175;51.018;6.994;2022-09-27T00:10:12;17.13;;;7.80;;
4323;SDS011;2175;51.018;6.994;2022-09-27T00:12:38;16.30;;;7.27;;
4323;SDS011;2175;51.018;6.994;2022-09-27T00:15:05;18.10;;;8.00;;
4323;SDS011;2175;51.018;6.994;2022-09-27T00:17:32;21.67;;;7.87;;
4323;SDS011;2175;51.018;6.994;2022-09-27T00:19:58;13.90;;;6.83;;
4323;SDS011;2175;51.018;6.994;2022-09-27T00:22:24;14.20;;;8.10;;
4323;SDS011;2175;51.018;6.994;2022-09-27T00:24:50;18.57;;;8.33;;
4323;SDS011;2175;51.018;6.994;2022-09-27T00:27:16;11.77;;;7.60;;
4323;SDS011;2175;51.018;6.994;2022-09-27T00:29:43;13.70;;;7.00;;
4323;SDS011;2175;51.018;6.994;2022-09-27T00:32:10;10.77;;;6.20;;
4323;SDS011;2175;51.018;6.994;2022-09-27T00:34:36;14.23;;;6.43;;
4323;SDS011;2175;51.018;6.994;2022-09-27T00:37:02;11.00;;;5.50;;
4323;SDS011;2175;51.018;6.994;2022-09-27T00:39:27;13.70;;;6.97;;
4323;SDS011;2175;51.018;6.994;2022-09-27T00:41:53;15.50;;;6.80;;
4323;SDS011;2175;51.018;6.994;2022-09-27T00:47:10;8.77;;;6.23;;
4323;SDS011;2175;51.018;6.994;2022-09-27T00:53:09;10.70;;;6.00;;
4323;SDS011;2175;51.018;6.994;2022-09-27T00:55:47;10.33;;;5.40;;
4323;SDS011;2175;51.018;6.994;2022-09-27T00:58:17;9.30;;;5.67;;
4323;SDS011;2175;51.018;6.994;2022-09-27T01:00:49;11.10;;;5.33;;
4323;SDS011;2175;51.018;6.994;2022-09-27T01:03:22;10.80;;;6.80;;
4323;SDS011;2175;51.018;6.994;2022-09-27T01:06:00;16.10;;;7.30;;
4323;SDS011;2175;51.018;6.994;2022-09-27T01:08:27;13.60;;;7.90;;
4323;SDS011;2175;51.018;6.994;2022-09-27T01:11:06;14.17;;;7.93;;
4323;SDS011;2175;51.018;6.994;2022-09-27T01:13:42;17.60;;;7.87;;
4323;SDS011;2175;51.018;6.994;2022-09-27T01:22:02;13.00;;;8.10;;
4323;SDS011;2175;51.018;6.994;2022-09-27T01:24:58;13.10;;;8.40;;
4323;SDS011;2175;51.018;6.994;2022-09-27T01:30:16;15.90;;;11.60;;
4323;SDS011;2175;51.018;6.994;2022-09-27T01:35:38;14.80;;;8.10;;
4323;SDS011;2175;51.018;6.994;2022-09-27T01:47:18;9.83;;;7.20;;
4323;SDS011;2175;51.018;6.994;2022-09-27T01:49:48;13.77;;;8.80;;
4323;SDS011;2175;51.018;6.994;2022-09-27T01:52:37;9.20;;;6.07;;
4323;SDS011;2175;51.018;6.994;2022-09-27T01:55:19;7.70;;;4.37;;
4323;SDS011;2175;51.018;6.994;2022-09-27T01:57:49;11.43;;;5.60;;
4323;SDS011;2175;51.018;6.994;2022-09-27T02:00:23;7.73;;;5.00;;
4323;SDS011;2175;51.018;6.994;2022-09-27T02:02:51;7.63;;;4.43;;
4323;SDS011;2175;51.018;6.994;2022-09-27T02:05:24;8.80;;;4.67;;
4323;SDS011;2175;51.018;6.994;2022-09-27T02:07:56;8.10;;;4.37;;
4323;SDS011;2175;51.018;6.994;2022-09-27T02:10:34;9.00;;;4.53;;
4323;SDS011;2175;51.018;6.994;2022-09-27T02:13:06;10.93;;;5.77;;
4323;SDS011;2175;51.018;6.994;2022-09-27T02:15:47;10.10;;;6.23;;
4323;SDS011;2175;51.018;6.994;2022-09-27T02:18:24;10.23;;;6.40;;
4323;SDS011;2175;51.018;6.994;2022-09-27T02:20:58;13.40;;;6.53;;
4323;SDS011;2175;51.018;6.994;2022-09-27T02:23:28;12.67;;;7.20;;
4323;SDS011;2175;51.018;6.994;2022-09-27T02:26:16;12.50;;;7.80;;
4323;SDS011;2175;51.018;6.994;2022-09-27T02:28:47;12.57;;;7.53;;
4323;SDS011;2175;51.018;6.994;2022-09-27T02:31:18;13.10;;;7.57;;
4323;SDS011;2175;51.018;6.994;2022-09-27T02:36:12;13.50;;;8.23;;
4323;SDS011;2175;51.018;6.994;2022-09-27T02:38:39;11.80;;;7.23;;
4323;SDS011;2175;51.018;6.994;2022-09-27T02:41:15;12.47;;;7.80;;
4323;SDS011;2175;51.018;6.994;2022-09-27T02:43:43;15.53;;;9.07;;
4323;SDS011;2175;51.018;6.994;2022-09-27T02:46:28;11.23;;;7.70;;
4323;SDS011;2175;51.018;6.994;2022-09-27T02:57:44;12.60;;;8.63;;
4323;SDS011;2175;51.018;6.994;2022-09-27T03:00:20;17.67;;;13.00;;
4323;SDS011;2175;51.018;6.994;2022-09-27T03:02:55;16.60;;;12.10;;
4323;SDS011;2175;51.018;6.994;2022-09-27T03:05:38;21.30;;;15.20;;
4323;SDS011;2175;51.018;6.994;2022-09-27T03:08:17;16.90;;;13.70;;
4323;SDS011;2175;51.018;6.994;2022-09-27T03:10:43;22.70;;;13.87;;
4323;SDS011;2175;51.018;6.994;2022-09-27T03:13:09;21.63;;;13.30;;
4323;SDS011;2175;51.018;6.994;2022-09-27T03:15:34;17.10;;;13.17;;
4323;SDS011;2175;51.018;6.994;2022-09-27T03:18:00;22.20;;;10.53;;
4323;SDS011;2175;51.018;6.994;2022-09-27T03:20:32;13.00;;;9.43;;
4323;SDS011;2175;51.018;6.994;2022-09-27T03:22:58;12.10;;;8.83;;
4323;SDS011;2175;51.018;6.994;2022-09-27T03:25:24;10.40;;;8.77;;
4323;SDS011;2175;51.018;6.994;2022-09-27T03:27:50;17.63;;;7.73;;
4323;SDS011;2175;51.018;6.994;2022-09-27T03:30:16;10.43;;;6.57;;
4323;SDS011;2175;51.018;6.994;2022-09-27T03:32:42;8.47;;;6.00;;
4323;SDS011;2175;51.018;6.994;2022-09-27T03:35:09;7.67;;;5.43;;
4323;SDS011;2175;51.018;6.994;2022-09-27T03:37:36;11.83;;;6.80;;
4323;SDS011;2175;51.018;6.994;2022-09-27T03:40:02;10.23;;;6.00;;
4323;SDS011;2175;51.018;6.994;2022-09-27T03:42:28;6.10;;;4.90;;
4323;SDS011;2175;51.018;6.994;2022-09-27T03:44:54;12.77;;;4.37;;
4323;SDS011;2175;51.018;6.994;2022-09-27T03:47:20;6.67;;;4.00;;
4323;SDS011;2175;51.018;6.994;2022-09-27T03:49:47;8.60;;;4.17;;
4323;SDS011;2175;51.018;6.994;2022-09-27T03:52:13;11.40;;;4.10;;
4323;SDS011;2175;51.018;6.994;2022-09-27T03:54:39;6.83;;;3.20;;
4323;SDS011;2175;51.018;6.994;2022-09-27T03:57:05;12.70;;;3.77;;
4323;SDS011;2175;51.018;6.994;2022-09-27T03:59:31;11.20;;;4.50;;
4323;SDS011;2175;51.018;6.994;2022-09-27T04:01:56;9.47;;;3.47;;
4323;SDS011;2175;51.018;6.994;2022-09-27T04:04:22;5.67;;;2.70;;
4323;SDS011;2175;51.018;6.994;2022-09-27T04:06:48;6.07;;;3.03;;
4323;SDS011;2175;51.018;6.994;2022-09-27T04:09:14;6.00;;;2.70;;
4323;SDS011;2175;51.018;6.994;2022-09-27T04:11:40;6.80;;;3.23;;
4323;SDS011;2175;51.018;6.994;2022-09-27T04:14:05;7.93;;;3.63;;
4323;SDS011;2175;51.018;6.994;2022-09-27T04:16:32;5.00;;;3.20;;
4323;SDS011;2175;51.018;6.994;2022-09-27T04:21:34;4.40;;;2.87;;
4323;SDS011;2175;51.018;6.994;2022-09-27T04:24:00;6.13;;;3.00;;
4323;SDS011;2175;51.018;6.994;2022-09-27T04:26:26;6.70;;;3.40;;
4323;SDS011;2175;51.018;6.994;2022-09-27T04:28:51;8.27;;;3.90;;
4323;SDS011;2175;51.018;6.994;2022-09-27T04:31:18;5.67;;;3.47;;
4323;SDS011;2175;51.018;6.994;2022-09-27T04:33:44;9.53;;;5.03;;
4323;SDS011;2175;51.018;6.994;2022-09-27T04:36:16;8.80;;;4.90;;
4323;SDS011;2175;51.018;6.994;2022-09-27T04:38:57;9.00;;;4.53;;
4323;SDS011;2175;51.018;6.994;2022-09-27T04:41:25;7.63;;;4.53;;
4323;SDS011;2175;51.018;6.994;2022-09-27T04:44:03;11.33;;;3.97;;
4323;SDS011;2175;51.018;6.994;2022-09-27T04:46:30;9.13;;;3.90;;
4323;SDS011;2175;51.018;6.994;2022-09-27T04:48:59;7.57;;;2.90;;
4323;SDS011;2175;51.018;6.994;2022-09-27T04:51:26;7.60;;;2.73;;
4323;SDS011;2175;51.018;6.994;2022-09-27T04:53:52;6.33;;;3.03;;
4323;SDS011;2175;51.018;6.994;2022-09-27T04:56:19;7.67;;;3.20;;
4323;SDS011;2175;51.018;6.994;2022-09-27T04:58:49;9.63;;;2.67;;
4323;SDS011;2175;51.018;6.994;2022-09-27T05:01:14;6.83;;;2.90;;
4323;SDS011;2175;51.018;6.994;2022-09-27T05:03:40;8.37;;;2.83;;
4323;SDS011;2175;51.018;6.994;2022-09-27T05:06:06;6.03;;;2.50;;
4323;SDS011;2175;51.018;6.994;2022-09-27T05:11:19;8.17;;;3.10;;
4323;SDS011;2175;51.018;6.994;2022-09-27T05:13:46;8.93;;;5.23;;
4323;SDS011;2175;51.018;6.994;2022-09-27T05:16:11;11.43;;;4.07;;
4323;SDS011;2175;51.018;6.994;2022-09-27T05:18:37;9.67;;;4.03;;
4323;SDS011;2175;51.018;6.994;2022-09-27T05:21:03;9.70;;;4.50;;
4323;SDS011;2175;51.018;6.994;2022-09-27T05:23:28;9.30;;;4.67;;
4323;SDS011;2175;51.018;6.994;2022-09-27T05:25:55;5.53;;;3.30;;
4323;SDS011;2175;51.018;6.994;2022-09-27T05:28:21;8.00;;;3.00;;
4323;SDS011;2175;51.018;6.994;2022-09-27T05:30:48;6.90;;;3.20;;
4323;SDS011;2175;51.018;6.994;2022-09-27T05:33:14;4.93;;;2.63;;
4323;SDS011;2175;51.018;6.994;2022-09-27T05:35:39;5.50;;;2.87;;
4323;SDS011;2175;51.018;6.994;2022-09-27T05:38:06;6.13;;;2.80;;
4323;SDS011;2175;51.018;6.994;2022-09-27T05:40:33;6.37;;;2.73;;
4323;SDS011;2175;51.018;6.994;2022-09-27T05:42:58;8.63;;;2.83;;
4323;SDS011;2175;51.018;6.994;2022-09-27T05:45:24;6.50;;;2.50;;
4323;SDS011;2175;51.018;6.994;2022-09-27T05:47:56;6.57;;;3.23;;
4323;SDS011;2175;51.018;6.994;2022-09-27T05:50:23;8.93;;;3.40;;
4323;SDS011;2175;51.018;6.994;2022-09-27T05:52:49;12.33;;;3.63;;
4323;SDS011;2175;51.018;6.994;2022-09-27T05:55:16;12.40;;;4.20;;
4323;SDS011;2175;51.018;6.994;2022-09-27T05:57:41;4.70;;;2.87;;
4323;SDS011;2175;51.018;6.994;2022-09-27T06:00:07;5.53;;;3.00;;
4323;SDS011;2175;51.018;6.994;2022-09-27T06:02:34;8.57;;;3.17;;
4323;SDS011;2175;51.018;6.994;2022-09-27T06:05:00;3.73;;;2.33;;
4323;SDS011;2175;51.018;6.994;2022-09-27T06:07:28;5.30;;;2.57;;
4323;SDS011;2175;51.018;6.994;2022-09-27T06:09:55;7.60;;;2.53;;
4323;SDS011;2175;51.018;6.994;2022-09-27T06:12:21;9.77;;;2.70;;
4323;SDS011;2175;51.018;6.994;2022-09-27T06:14:47;11.40;;;3.57;;
4323;SDS011;2175;51.018;6.994;2022-09-27T06:17:12;4.00;;;2.70;;
4323;SDS011;2175;51.018;6.994;2022-09-27T06:19:38;12.93;;;3.40;;
4323;SDS011;2175;51.018;6.994;2022-09-27T06:22:04;8.30;;;3.50;;
4323;SDS011;2175;51.018;6.994;2022-09-27T06:24:30;7.90;;;3.63;;
4323;SDS011;2175;51.018;6.994;2022-09-27T06:26:56;9.10;;;4.23;;
4323;SDS011;2175;51.018;6.994;2022-09-27T06:29:22;10.13;;;3.30;;
4323;SDS011;2175;51.018;6.994;2022-09-27T06:31:47;5.87;;;3.10;;
4323;SDS011;2175;51.018;6.994;2022-09-27T06:34:13;10.10;;;3.50;;
4323;SDS011;2175;51.018;6.994;2022-09-27T06:36:39;7.23;;;3.50;;
4323;SDS011;2175;51.018;6.994;2022-09-27T06:39:05;10.43;;;3.40;;
4323;SDS011;2175;51.018;6.994;2022-09-27T06:41:31;6.50;;;3.70;;
4323;SDS011;2175;51.018;6.994;2022-09-27T06:43:57;7.07;;;3.33;;
4323;SDS011;2175;51.018;6.994;2022-09-27T06:46:23;7.63;;;3.40;;
4323;SDS011;2175;51.018;6.994;2022-09-27T06:48:48;6.50;;;3.27;;
4323;SDS011;2175;51.018;6.994;2022-09-27T06:51:14;10.20;;;3.27;;
4323;SDS011;2175;51.018;6.994;2022-09-27T06:53:39;8.97;;;3.47;;
4323;SDS011;2175;51.018;6.994;2022-09-27T06:56:05;7.03;;;3.47;;
4323;SDS011;2175;51.018;6.994;2022-09-27T06:58:31;6.77;;;2.90;;
4323;SDS011;2175;51.018;6.994;2022-09-27T07:01:15;5.77;;;2.90;;
4323;SDS011;2175;51.018;6.994;2022-09-27T07:03:42;12.77;;;2.73;;
4323;SDS011;2175;51.018;6.994;2022-09-27T07:06:15;4.10;;;2.20;;
4323;SDS011;2175;51.018;6.994;2022-09-27T07:08:42;9.40;;;2.50;;
4323;SDS011;2175;51.018;6.994;2022-09-27T07:11:08;6.60;;;2.60;;
4323;SDS011;2175;51.018;6.994;2022-09-27T07:13:34;5.50;;;2.07;;
4323;SDS011;2175;51.018;6.994;2022-09-27T07:16:04;13.63;;;2.50;;
4323;SDS011;2175;51.018;6.994;2022-09-27T07:18:30;6.53;;;2.40;;
4323;SDS011;2175;51.018;6.994;2022-09-27T07:20:55;9.53;;;2.40;;
4323;SDS011;2175;51.018;6.994;2022-09-27T07:23:24;5.87;;;2.13;;
4323;SDS011;2175;51.018;6.994;2022-09-27T07:25:50;6.67;;;2.00;;
4323;SDS011;2175;51.018;6.994;2022-09-27T07:28:17;7.90;;;2.10;;
4323;SDS011;2175;51.018;6.994;2022-09-27T07:30:43;10.20;;;2.13;;
4323;SDS011;2175;51.018;6.994;2022-09-27T07:33:09;10.20;;;2.53;;
4323;SDS011;2175;51.018;6.994;2022-09-27T07:35:39;6.73;;;2.30;;
4323;SDS011;2175;51.018;6.994;2022-09-27T07:38:06;7.20;;;2.10;;
4323;SDS011;2175;51.018;6.994;2022-09-27T07:40:37;6.77;;;2.50;;
4323;SDS011;2175;51.018;6.994;2022-09-27T07:43:04;5.63;;;1.97;;
4323;SDS011;2175;51.018;6.994;2022-09-27T07:45:30;4.43;;;1.83;;
4323;SDS011;2175;51.018;6.994;2022-09-27T07:47:56;7.30;;;1.80;;
4323;SDS011;2175;51.018;6.994;2022-09-27T07:50:22;6.20;;;1.70;;
4323;SDS011;2175;51.018;6.994;2022-09-27T07:52:48;9.13;;;1.53;;
4323;SDS011;2175;51.018;6.994;2022-09-27T07:55:15;4.03;;;1.50;;
4323;SDS011;2175;51.018;6.994;2022-09-27T07:57:41;5.53;;;2.00;;
4323;SDS011;2175;51.018;6.994;2022-09-27T08:00:10;3.37;;;1.70;;
4323;SDS011;2175;51.018;6.994;2022-09-27T08:02:40;3.10;;;1.60;;
4323;SDS011;2175;51.018;6.994;2022-09-27T08:05:07;3.43;;;1.43;;
4323;SDS011;2175;51.018;6.994;2022-09-27T08:07:33;8.70;;;2.40;;
4323;SDS011;2175;51.018;6.994;2022-09-27T08:09:59;5.97;;;2.33;;
4323;SDS011;2175;51.018;6.994;2022-09-27T08:12:25;6.30;;;2.17;;
4323;SDS011;2175;51.018;6.994;2022-09-27T08:14:50;6.27;;;2.43;;
4323;SDS011;2175;51.018;6.994;2022-09-27T08:17:16;4.53;;;2.77;;
4323;SDS011;2175;51.018;6.994;2022-09-27T08:19:43;7.70;;;2.63;;
4323;SDS011;2175;51.018;6.994;2022-09-27T08:22:10;7.70;;;2.87;;
4323;SDS011;2175;51.018;6.994;2022-09-27T08:24:38;3.00;;;2.30;;
4323;SDS011;2175;51.018;6.994;2022-09-27T08:27:04;4.10;;;2.50;;
4323;SDS011;2175;51.018;6.994;2022-09-27T08:29:32;5.00;;;2.50;;
4323;SDS011;2175;51.018;6.994;2022-09-27T08:31:58;6.77;;;2.90;;
4323;SDS011;2175;51.018;6.994;2022-09-27T08:34:24;6.10;;;2.60;;
4323;SDS011;2175;51.018;6.994;2022-09-27T08:36:50;13.27;;;2.83;;
4323;SDS011;2175;51.018;6.994;2022-09-27T08:39:15;6.30;;;2.63;;
4323;SDS011;2175;51.018;6.994;2022-09-27T08:41:53;5.83;;;2.80;;
4323;SDS011;2175;51.018;6.994;2022-09-27T08:44:57;5.80;;;2.50;;
4323;SDS011;2175;51.018;6.994;2022-09-27T08:55:44;5.53;;;1.90;;
4323;SDS011;2175;51.018;6.994;2022-09-27T09:00:56;4.50;;;1.80;;
4323;SDS011;2175;51.018;6.994;2022-09-27T09:03:28;3.53;;;1.77;;
4323;SDS011;2175;51.018;6.994;2022-09-27T09:08:33;5.53;;;1.87;;
4323;SDS011;2175;51.018;6.994;2022-09-27T09:14:10;2.80;;;1.90;;
4323;SDS011;2175;51.018;6.994;2022-09-27T09:17:04;4.53;;;1.70;;
4323;SDS011;2175;51.018;6.994;2022-09-27T09:22:28;3.73;;;1.70;;
4323;SDS011;2175;51.018;6.994;2022-09-27T09:33:30;3.50;;;1.70;;
4323;SDS011;2175;51.018;6.994;2022-09-27T09:36:22;3.67;;;2.10;;
4323;SDS011;2175;51.018;6.994;2022-09-27T09:39:22;4.67;;;2.10;;
4323;SDS011;2175;51.018;6.994;2022-09-27T09:44:40;4.20;;;1.70;;
4323;SDS011;2175;51.018;6.994;2022-09-27T09:47:19;5.00;;;2.03;;
4323;SDS011;2175;51.018;6.994;2022-09-27T09:50:05;6.60;;;2.00;;
4323;SDS011;2175;51.018;6.994;2022-09-27T09:52:44;4.20;;;2.13;;
4323;SDS011;2175;51.018;6.994;2022-09-27T09:55:19;4.13;;;2.10;;
4323;SDS011;2175;51.018;6.994;2022-09-27T09:58:00;4.67;;;2.13;;
4323;SDS011;2175;51.018;6.994;2022-09-27T10:00:46;3.47;;;2.30;;
4323;SDS011;2175;51.018;6.994;2022-09-27T10:03:14;9.17;;;3.00;;
4323;SDS011;2175;51.018;6.994;2022-09-27T10:05:41;6.60;;;2.33;;
4323;SDS011;2175;51.018;6.994;2022-09-27T10:08:15;7.90;;;2.50;;
4323;SDS011;2175;51.018;6.994;2022-09-27T10:10:44;4.57;;;2.80;;
4323;SDS011;2175;51.018;6.994;2022-09-27T10:13:17;9.70;;;2.80;;
4323;SDS011;2175;51.018;6.994;2022-09-27T10:15:53;3.20;;;2.33;;
4323;SDS011;2175;51.018;6.994;2022-09-27T10:18:26;11.20;;;2.33;;
4323;SDS011;2175;51.018;6.994;2022-09-27T10:20:56;5.57;;;2.37;;
4323;SDS011;2175;51.018;6.994;2022-09-27T10:23:25;8.03;;;2.30;;
4323;SDS011;2175;51.018;6.994;2022-09-27T10:25:52;4.83;;;2.20;;
4323;SDS011;2175;51.018;6.994;2022-09-27T10:30:59;6.33;;;2.00;;
4323;SDS011;2175;51.018;6.994;2022-09-27T10:33:28;3.93;;;1.83;;
4323;SDS011;2175;51.018;6.994;2022-09-27T10:35:55;4.43;;;1.90;;
4323;SDS011;2175;51.018;6.994;2022-09-27T10:38:23;7.87;;;2.30;;
4323;SDS011;2175;51.018;6.994;2022-09-27T10:40:52;3.00;;;1.97;;
4323;SDS011;2175;51.018;6.994;2022-09-27T10:43:35;5.47;;;2.60;;
4323;SDS011;2175;51.018;6.994;2022-09-27T10:46:05;3.57;;;1.87;;
4323;SDS011;2175;51.018;6.994;2022-09-27T10:48:33;4.67;;;2.10;;
4323;SDS011;2175;51.018;6.994;2022-09-27T10:51:03;6.30;;;2.17;;
4323;SDS011;2175;51.018;6.994;2022-09-27T10:53:31;10.83;;;2.50;;
4323;SDS011;2175;51.018;6.994;2022-09-27T10:55:59;7.07;;;2.90;;
4323;SDS011;2175;51.018;6.994;2022-09-27T10:58:26;6.70;;;2.97;;
4323;SDS011;2175;51.018;6.994;2022-09-27T11:00:57;3.60;;;2.60;;
4323;SDS011;2175;51.018;6.994;2022-09-27T11:03:28;4.53;;;2.40;;
4323;SDS011;2175;51.018;6.994;2022-09-27T11:05:56;5.30;;;2.97;;
4323;SDS011;2175;51.018;6.994;2022-09-27T11:08:27;9.87;;;3.83;;
4323;SDS011;2175;51.018;6.994;2022-09-27T11:13:31;9.17;;;5.40;;
4323;SDS011;2175;51.018;6.994;2022-09-27T11:24:24;15.97;;;8.10;;
4323;SDS011;2175;51.018;6.994;2022-09-27T11:35:37;8.83;;;5.47;;
4323;SDS011;2175;51.018;6.994;2022-09-27T11:41:33;6.13;;;4.43;;
4323;SDS011;2175;51.018;6.994;2022-09-27T11:47:02;10.40;;;4.80;;
4323;SDS011;2175;51.018;6.994;2022-09-27T11:52:39;7.97;;;4.43;;
4323;SDS011;2175;51.018;6.994;2022-09-27T11:58:02;6.83;;;4.20;;
4323;SDS011;2175;51.018;6.994;2022-09-27T12:00:48;5.90;;;4.23;;
4323;SDS011;2175;51.018;6.994;2022-09-27T12:03:37;9.53;;;3.97;;
4323;SDS011;2175;51.018;6.994;2022-09-27T12:06:16;8.03;;;4.17;;
4323;SDS011;2175;51.018;6.994;2022-09-27T12:09:04;9.63;;;3.63;;
4323;SDS011;2175;51.018;6.994;2022-09-27T12:11:38;6.40;;;3.70;;
4323;SDS011;2175;51.018;6.994;2022-09-27T12:14:10;9.30;;;4.77;;
4323;SDS011;2175;51.018;6.994;2022-09-27T12:16:40;13.33;;;4.30;;
4323;SDS011;2175;51.018;6.994;2022-09-27T12:19:10;7.30;;;3.60;;
4323;SDS011;2175;51.018;6.994;2022-09-27T12:21:46;9.50;;;3.70;;
4323;SDS011;2175;51.018;6.994;2022-09-27T12:24:19;7.43;;;3.80;;
4323;SDS011;2175;51.018;6.994;2022-09-27T12:26:46;6.10;;;3.57;;
4323;SDS011;2175;51.018;6.994;2022-09-27T12:29:28;7.77;;;4.07;;
4323;SDS011;2175;51.018;6.994;2022-09-27T12:34:37;7.20;;;3.70;;
4323;SDS011;2175;51.018;6.994;2022-09-27T12:37:20;9.80;;;3.50;;
4323;SDS011;2175;51.018;6.994;2022-09-27T12:42:28;5.83;;;3.53;;
4323;SDS011;2175;51.018;6.994;2022-09-27T12:45:50;6.23;;;3.83;;
4323;SDS011;2175;51.018;6.994;2022-09-27T12:50:54;8.17;;;3.47;;
4323;SDS011;2175;51.018;6.994;2022-09-27T12:53:30;5.10;;;2.67;;
4323;SDS011;2175;51.018;6.994;2022-09-27T12:56:08;4.30;;;2.23;;
4323;SDS011;2175;51.018;6.994;2022-09-27T13:09:52;11.87;;;4.37;;
4323;SDS011;2175;51.018;6.994;2022-09-27T13:12:30;11.00;;;4.60;;
4323;SDS011;2175;51.018;6.994;2022-09-27T13:15:02;9.30;;;3.90;;
4323;SDS011;2175;51.018;6.994;2022-09-27T13:22:52;8.57;;;4.90;;
4323;SDS011;2175;51.018;6.994;2022-09-27T13:26:01;11.10;;;5.47;;
4323;SDS011;2175;51.018;6.994;2022-09-27T13:30:59;8.97;;;4.93;;
4323;SDS011;2175;51.018;6.994;2022-09-27T13:33:31;10.40;;;5.00;;
4323;SDS011;2175;51.018;6.994;2022-09-27T13:47:28;5.50;;;3.83;;
4323;SDS011;2175;51.018;6.994;2022-09-27T13:52:44;7.70;;;3.40;;
4323;SDS011;2175;51.018;6.994;2022-09-27T14:01:04;10.47;;;4.07;;
4323;SDS011;2175;51.018;6.994;2022-09-27T14:03:54;7.37;;;2.73;;
4323;SDS011;2175;51.018;6.994;2022-09-27T14:06:25;6.40;;;2.30;;
4323;SDS011;2175;51.018;6.994;2022-09-27T14:09:02;6.43;;;2.43;;
4323;SDS011;2175;51.018;6.994;2022-09-27T14:11:37;4.90;;;2.97;;
4323;SDS011;2175;51.018;6.994;2022-09-27T14:14:06;6.20;;;3.27;;
4323;SDS011;2175;51.018;6.994;2022-09-27T14:16:43;5.80;;;3.47;;
4323;SDS011;2175;51.018;6.994;2022-09-27T14:19:13;9.50;;;3.53;;
4323;SDS011;2175;51.018;6.994;2022-09-27T14:21:44;5.07;;;2.77;;
4323;SDS011;2175;51.018;6.994;2022-09-27T14:26:49;4.83;;;2.30;;
4323;SDS011;2175;51.018;6.994;2022-09-27T14:29:29;4.70;;;2.60;;
4323;SDS011;2175;51.018;6.994;2022-09-27T14:32:05;11.53;;;2.47;;
4323;SDS011;2175;51.018;6.994;2022-09-27T14:34:40;4.80;;;2.40;;
4323;SDS011;2175;51.018;6.994;2022-09-27T14:37:13;11.17;;;2.20;;
4323;SDS011;2175;51.018;6.994;2022-09-27T14:39:54;8.63;;;2.57;;
4323;SDS011;2175;51.018;6.994;2022-09-27T14:42:31;5.10;;;2.53;;
4323;SDS011;2175;51.018;6.994;2022-09-27T14:45:03;5.63;;;2.40;;
4323;SDS011;2175;51.018;6.994;2022-09-27T14:47:44;5.53;;;2.43;;
4323;SDS011;2175;51.018;6.994;2022-09-27T14:50:15;9.27;;;2.60;;
4323;SDS011;2175;51.018;6.994;2022-09-27T14:52:44;6.37;;;2.70;;
4323;SDS011;2175;51.018;6.994;2022-09-27T14:55:15;5.33;;;2.27;;
4323;SDS011;2175;51.018;6.994;2022-09-27T14:57:56;8.13;;;2.77;;
4323;SDS011;2175;51.018;6.994;2022-09-27T15:00:25;10.67;;;3.20;;
4323;SDS011;2175;51.018;6.994;2022-09-27T15:02:56;11.60;;;3.33;;
4323;SDS011;2175;51.018;6.994;2022-09-27T15:05:34;3.97;;;2.00;;
4323;SDS011;2175;51.018;6.994;2022-09-27T15:08:05;6.07;;;2.00;;
4323;SDS011;2175;51.018;6.994;2022-09-27T15:10:32;9.50;;;2.47;;
4323;SDS011;2175;51.018;6.994;2022-09-27T15:12:59;6.57;;;2.80;;
4323;SDS011;2175;51.018;6.994;2022-09-27T15:15:30;6.10;;;2.50;;
4323;SDS011;2175;51.018;6.994;2022-09-27T15:18:02;7.10;;;2.80;;
4323;SDS011;2175;51.018;6.994;2022-09-27T15:20:53;7.60;;;3.17;;
4323;SDS011;2175;51.018;6.994;2022-09-27T15:23:26;9.80;;;3.70;;
4323;SDS011;2175;51.018;6.994;2022-09-27T15:26:25;7.30;;;2.50;;
4323;SDS011;2175;51.018;6.994;2022-09-27T15:29:03;8.90;;;2.50;;
4323;SDS011;2175;51.018;6.994;2022-09-27T15:31:30;9.00;;;2.70;;
4323;SDS011;2175;51.018;6.994;2022-09-27T15:34:00;10.77;;;2.83;;
4323;SDS011;2175;51.018;6.994;2022-09-27T15:39:20;6.90;;;2.40;;
4323;SDS011;2175;51.018;6.994;2022-09-27T15:44:51;10.57;;;2.90;;
4323;SDS011;2175;51.018;6.994;2022-09-27T15:52:49;6.77;;;2.57;;
4323;SDS011;2175;51.018;6.994;2022-09-27T15:55:17;4.40;;;2.20;;
4323;SDS011;2175;51.018;6.994;2022-09-27T15:57:44;3.80;;;1.90;;
4323;SDS011;2175;51.018;6.994;2022-09-27T16:00:15;6.67;;;1.93;;
4323;SDS011;2175;51.018;6.994;2022-09-27T16:02:42;5.80;;;1.93;;
4323;SDS011;2175;51.018;6.994;2022-09-27T16:05:09;4.70;;;1.70;;
4323;SDS011;2175;51.018;6.994;2022-09-27T16:07:34;5.13;;;2.00;;
4323;SDS011;2175;51.018;6.994;2022-09-27T16:10:00;5.60;;;2.27;;
4323;SDS011;2175;51.018;6.994;2022-09-27T16:12:26;3.60;;;1.90;;
4323;SDS011;2175;51.018;6.994;2022-09-27T16:14:54;5.57;;;2.17;;
4323;SDS011;2175;51.018;6.994;2022-09-27T16:17:20;6.53;;;1.70;;
4323;SDS011;2175;51.018;6.994;2022-09-27T16:19:46;3.20;;;1.73;;
4323;SDS011;2175;51.018;6.994;2022-09-27T16:22:12;2.33;;;1.57;;
4323;SDS011;2175;51.018;6.994;2022-09-27T16:24:37;2.50;;;1.40;;
4323;SDS011;2175;51.018;6.994;2022-09-27T16:27:03;7.10;;;1.80;;
4323;SDS011;2175;51.018;6.994;2022-09-27T16:29:29;5.60;;;2.10;;
4323;SDS011;2175;51.018;6.994;2022-09-27T16:31:54;2.40;;;1.77;;
4323;SDS011;2175;51.018;6.994;2022-09-27T16:34:21;3.87;;;1.50;;
4323;SDS011;2175;51.018;6.994;2022-09-27T16:36:48;3.30;;;1.70;;
4323;SDS011;2175;51.018;6.994;2022-09-27T16:39:14;9.47;;;1.97;;
4323;SDS011;2175;51.018;6.994;2022-09-27T16:41:40;3.90;;;1.90;;
4323;SDS011;2175;51.018;6.994;2022-09-27T16:44:10;3.63;;;1.77;;
4323;SDS011;2175;51.018;6.994;2022-09-27T16:46:40;3.10;;;1.83;;
4323;SDS011;2175;51.018;6.994;2022-09-27T16:49:07;7.20;;;2.33;;
4323;SDS011;2175;51.018;6.994;2022-09-27T16:51:52;3.00;;;1.80;;
4323;SDS011;2175;51.018;6.994;2022-09-27T16:54:24;2.90;;;1.90;;
4323;SDS011;2175;51.018;6.994;2022-09-27T16:56:52;4.67;;;2.00;;
4323;SDS011;2175;51.018;6.994;2022-09-27T16:59:17;4.73;;;1.90;;
4323;SDS011;2175;51.018;6.994;2022-09-27T17:01:44;4.30;;;2.03;;
4323;SDS011;2175;51.018;6.994;2022-09-27T17:04:10;4.17;;;2.43;;
4323;SDS011;2175;51.018;6.994;2022-09-27T17:06:36;14.33;;;2.40;;
4323;SDS011;2175;51.018;6.994;2022-09-27T17:09:02;3.43;;;2.10;;
4323;SDS011;2175;51.018;6.994;2022-09-27T17:11:28;4.63;;;2.50;;
4323;SDS011;2175;51.018;6.994;2022-09-27T17:13:55;8.53;;;3.50;;
4323;SDS011;2175;51.018;6.994;2022-09-27T17:16:21;10.07;;;4.50;;
4323;SDS011;2175;51.018;6.994;2022-09-27T17:18:47;12.50;;;5.10;;
4323;SDS011;2175;51.018;6.994;2022-09-27T17:21:13;5.00;;;2.73;;
4323;SDS011;2175;51.018;6.994;2022-09-27T17:23:39;4.60;;;2.80;;
4323;SDS011;2175;51.018;6.994;2022-09-27T17:26:06;6.67;;;2.50;;
4323;SDS011;2175;51.018;6.994;2022-09-27T17:28:34;7.97;;;3.40;;
4323;SDS011;2175;51.018;6.994;2022-09-27T17:31:07;5.83;;;3.53;;
4323;SDS011;2175;51.018;6.994;2022-09-27T17:33:41;5.70;;;2.53;;
4323;SDS011;2175;51.018;6.994;2022-09-27T17:36:11;7.30;;;3.07;;
4323;SDS011;2175;51.018;6.994;2022-09-27T17:38:59;5.10;;;2.40;;
4323;SDS011;2175;51.018;6.994;2022-09-27T17:41:26;7.43;;;2.37;;
4323;SDS011;2175;51.018;6.994;2022-09-27T17:43:56;5.33;;;2.90;;
4323;SDS011;2175;51.018;6.994;2022-09-27T17:46:25;6.40;;;2.93;;
4323;SDS011;2175;51.018;6.994;2022-09-27T17:48:53;7.13;;;3.00;;
4323;SDS011;2175;51.018;6.994;2022-09-27T17:51:38;4.70;;;2.70;;
4323;SDS011;2175;51.018;6.994;2022-09-27T17:54:05;7.30;;;2.87;;
4323;SDS011;2175;51.018;6.994;2022-09-27T17:56:34;5.63;;;3.00;;
4323;SDS011;2175;51.018;6.994;2022-09-27T17:59:04;6.63;;;3.07;;
4323;SDS011;2175;51.018;6.994;2022-09-27T18:01:30;12.63;;;3.70;;
4323;SDS011;2175;51.018;6.994;2022-09-27T18:03:58;11.00;;;3.73;;
4323;SDS011;2175;51.018;6.994;2022-09-27T18:06:25;7.97;;;3.50;;
4323;SDS011;2175;51.018;6.994;2022-09-27T18:08:52;8.80;;;3.73;;
4323;SDS011;2175;51.018;6.994;2022-09-27T18:11:20;7.33;;;4.07;;
4323;SDS011;2175;51.018;6.994;2022-09-27T18:13:49;9.47;;;3.93;;
4323;SDS011;2175;51.018;6.994;2022-09-27T18:16:18;10.20;;;4.50;;
4323;SDS011;2175;51.018;6.994;2022-09-27T18:18:46;8.67;;;3.93;;